sensor_id;sensor_type;location;lat;lon;timestamp;temperature;humidity
65972;SHT31;52726;48.852;9.152;2022-11-21T00:01:32;4.91;88.94
65972;SHT31;52726;48.852;9.152;2022-11-21T00:03:57;4.97;88.87
65972;SHT31;52726;48.852;9.152;2022-11-21T00:06:23;5.01;88.72
65972;SHT31;52726;48.852;9.152;2022-11-21T00:08:48;5.06;88.76
65972;SHT31;52726;48.852;9.152;2022-11-21T00:11:14;5.07;88.64
65972;SHT31;52726;48.852;9.152;2022-11-21T00:13:40;5.07;88.80
65972;SHT31;52726;48.852;9.152;2022-11-21T00:16:08;5.04;89.06
65972;SHT31;52726;48.852;9.152;2022-11-21T00:18:34;5.04;89.41
65972;SHT31;52726;48.852;9.152;2022-11-21T00:21:05;5.04;89.56
65972;SHT31;52726;48.852;9.152;2022-11-21T00:23:30;5.04;89.52
65972;SHT31;52726;48.852;9.152;2022-11-21T00:25:55;5.01;89.37
65972;SHT31;52726;48.852;9.152;2022-11-21T00:28:21;5.01;90.07
65972;SHT31;52726;48.852;9.152;2022-11-21T00:30:46;5.01;90.12
65972;SHT31;52726;48.852;9.152;2022-11-21T00:33:12;5.00;89.75
65972;SHT31;52726;48.852;9.152;2022-11-21T00:35:37;4.99;90.18
65972;SHT31;52726;48.852;9.152;2022-11-21T00:38:02;4.96;90.11
65972;SHT31;52726;48.852;9.152;2022-11-21T00:40:28;4.93;89.77
65972;SHT31;52726;48.852;9.152;2022-11-21T00:42:53;4.93;90.08
65972;SHT31;52726;48.852;9.152;2022-11-21T00:45:18;4.87;90.19
65972;SHT31;52726;48.852;9.152;2022-11-21T00:47:44;4.84;90.06
65972;SHT31;52726;48.852;9.152;2022-11-21T00:50:09;4.80;89.96
65972;SHT31;52726;48.852;9.152;2022-11-21T00:52:35;4.73;89.94
65972;SHT31;52726;48.852;9.152;2022-11-21T00:55:00;4.69;89.85
65972;SHT31;52726;48.852;9.152;2022-11-21T00:57:26;4.66;89.67
65972;SHT31;52726;48.852;9.152;2022-11-21T00:59:51;4.63;89.99
65972;SHT31;52726;48.852;9.152;2022-11-21T01:02:16;4.62;89.99
65972;SHT31;52726;48.852;9.152;2022-11-21T01:04:51;4.61;89.92
65972;SHT31;52726;48.852;9.152;2022-11-21T01:07:19;4.62;90.25
65972;SHT31;52726;48.852;9.152;2022-11-21T01:09:44;4.58;90.04
65972;SHT31;52726;48.852;9.152;2022-11-21T01:12:10;4.61;90.19
65972;SHT31;52726;48.852;9.152;2022-11-21T01:14:35;4.61;90.47
65972;SHT31;52726;48.852;9.152;2022-11-21T01:17:00;4.61;90.32
65972;SHT31;52726;48.852;9.152;2022-11-21T01:19:26;4.59;90.61
65972;SHT31;52726;48.852;9.152;2022-11-21T01:21:51;4.63;90.54
65972;SHT31;52726;48.852;9.152;2022-11-21T01:24:16;4.62;90.66
65972;SHT31;52726;48.852;9.152;2022-11-21T01:26:42;4.66;90.98
65972;SHT31;52726;48.852;9.152;2022-11-21T01:29:07;4.65;91.71
65972;SHT31;52726;48.852;9.152;2022-11-21T01:31:33;4.63;91.82
65972;SHT31;52726;48.852;9.152;2022-11-21T01:33:59;4.62;92.19
65972;SHT31;52726;48.852;9.152;2022-11-21T01:36:27;4.59;92.10
65972;SHT31;52726;48.852;9.152;2022-11-21T01:38:54;4.58;92.32
65972;SHT31;52726;48.852;9.152;2022-11-21T01:41:26;4.56;92.70
65972;SHT31;52726;48.852;9.152;2022-11-21T01:43:53;4.53;93.10
65972;SHT31;52726;48.852;9.152;2022-11-21T01:46:22;4.52;93.79
65972;SHT31;52726;48.852;9.152;2022-11-21T01:48:55;4.46;93.55
65972;SHT31;52726;48.852;9.152;2022-11-21T01:51:43;4.48;94.32
65972;SHT31;52726;48.852;9.152;2022-11-21T01:56:47;4.44;94.06
65972;SHT31;52726;48.852;9.152;2022-11-21T01:59:29;4.42;94.31
65972;SHT31;52726;48.852;9.152;2022-11-21T02:01:58;4.41;94.58
65972;SHT31;52726;48.852;9.152;2022-11-21T02:04:26;4.41;94.50
65972;SHT31;52726;48.852;9.152;2022-11-21T02:06:52;4.40;94.73
65972;SHT31;52726;48.852;9.152;2022-11-21T02:09:18;4.41;94.66
65972;SHT31;52726;48.852;9.152;2022-11-21T02:11:51;4.38;94.81
65972;SHT31;52726;48.852;9.152;2022-11-21T02:14:18;4.37;94.45
65972;SHT31;52726;48.852;9.152;2022-11-21T02:16:45;4.35;93.97
65972;SHT31;52726;48.852;9.152;2022-11-21T02:19:16;4.37;94.64
65972;SHT31;52726;48.852;9.152;2022-11-21T02:21:49;4.40;94.22
65972;SHT31;52726;48.852;9.152;2022-11-21T02:24:42;4.38;94.39
65972;SHT31;52726;48.852;9.152;2022-11-21T02:27:10;4.37;94.07
65972;SHT31;52726;48.852;9.152;2022-11-21T02:29:36;4.38;94.20
65972;SHT31;52726;48.852;9.152;2022-11-21T02:32:04;4.37;93.62
65972;SHT31;52726;48.852;9.152;2022-11-21T02:34:33;4.38;93.90
65972;SHT31;52726;48.852;9.152;2022-11-21T02:36:59;4.35;93.61
65972;SHT31;52726;48.852;9.152;2022-11-21T02:39:34;4.35;93.88
65972;SHT31;52726;48.852;9.152;2022-11-21T02:42:08;4.30;93.58
65972;SHT31;52726;48.852;9.152;2022-11-21T02:44:59;4.25;93.60
65972;SHT31;52726;48.852;9.152;2022-11-21T02:47:27;4.20;93.71
65972;SHT31;52726;48.852;9.152;2022-11-21T02:52:17;4.13;92.97
65972;SHT31;52726;48.852;9.152;2022-11-21T02:54:43;4.14;93.45
65972;SHT31;52726;48.852;9.152;2022-11-21T02:57:08;4.13;93.49
65972;SHT31;52726;48.852;9.152;2022-11-21T02:59:33;4.10;93.43
65972;SHT31;52726;48.852;9.152;2022-11-21T03:01:59;4.11;93.70
65972;SHT31;52726;48.852;9.152;2022-11-21T03:04:25;4.13;94.03
65972;SHT31;52726;48.852;9.152;2022-11-21T03:06:51;4.08;93.22
65972;SHT31;52726;48.852;9.152;2022-11-21T03:09:16;4.05;92.91
65972;SHT31;52726;48.852;9.152;2022-11-21T03:11:42;4.04;93.20
65972;SHT31;52726;48.852;9.152;2022-11-21T03:14:07;4.04;93.55
65972;SHT31;52726;48.852;9.152;2022-11-21T03:16:32;3.97;93.59
65972;SHT31;52726;48.852;9.152;2022-11-21T03:18:58;3.94;93.18
65972;SHT31;52726;48.852;9.152;2022-11-21T03:21:23;3.90;93.27
65972;SHT31;52726;48.852;9.152;2022-11-21T03:23:49;3.91;93.58
65972;SHT31;52726;48.852;9.152;2022-11-21T03:26:14;3.90;93.87
65972;SHT31;52726;48.852;9.152;2022-11-21T03:28:40;3.93;94.18
65972;SHT31;52726;48.852;9.152;2022-11-21T03:31:06;3.93;94.29
65972;SHT31;52726;48.852;9.152;2022-11-21T03:33:32;3.97;94.33
65972;SHT31;52726;48.852;9.152;2022-11-21T03:35:57;4.00;93.89
65972;SHT31;52726;48.852;9.152;2022-11-21T03:38:22;4.01;93.79
65972;SHT31;52726;48.852;9.152;2022-11-21T03:40:48;4.05;93.60
65972;SHT31;52726;48.852;9.152;2022-11-21T03:43:13;4.10;93.46
65972;SHT31;52726;48.852;9.152;2022-11-21T03:45:39;4.14;93.59
65972;SHT31;52726;48.852;9.152;2022-11-21T03:48:05;4.17;93.56
65972;SHT31;52726;48.852;9.152;2022-11-21T03:50:30;4.21;93.92
65972;SHT31;52726;48.852;9.152;2022-11-21T03:52:56;4.20;93.79
65972;SHT31;52726;48.852;9.152;2022-11-21T03:55:21;4.22;93.24
65972;SHT31;52726;48.852;9.152;2022-11-21T03:57:46;4.24;93.12
65972;SHT31;52726;48.852;9.152;2022-11-21T04:00:12;4.30;93.31
65972;SHT31;52726;48.852;9.152;2022-11-21T04:02:38;4.31;92.61
65972;SHT31;52726;48.852;9.152;2022-11-21T04:05:04;4.32;92.75
65972;SHT31;52726;48.852;9.152;2022-11-21T04:07:29;4.37;92.71
65972;SHT31;52726;48.852;9.152;2022-11-21T04:09:54;4.37;92.59
65972;SHT31;52726;48.852;9.152;2022-11-21T04:12:20;4.38;92.78
65972;SHT31;52726;48.852;9.152;2022-11-21T04:14:45;4.41;92.74
65972;SHT31;52726;48.852;9.152;2022-11-21T04:17:10;4.44;92.65
65972;SHT31;52726;48.852;9.152;2022-11-21T04:19:36;4.45;92.75
65972;SHT31;52726;48.852;9.152;2022-11-21T04:22:01;4.48;92.94
65972;SHT31;52726;48.852;9.152;2022-11-21T04:24:27;4.49;93.07
65972;SHT31;52726;48.852;9.152;2022-11-21T04:26:53;4.49;93.09
65972;SHT31;52726;48.852;9.152;2022-11-21T04:29:19;4.49;92.87
65972;SHT31;52726;48.852;9.152;2022-11-21T04:31:44;4.52;93.29
65972;SHT31;52726;48.852;9.152;2022-11-21T04:34:16;4.51;93.04
65972;SHT31;52726;48.852;9.152;2022-11-21T04:36:46;4.53;93.19
65972;SHT31;52726;48.852;9.152;2022-11-21T04:39:11;4.52;93.05
65972;SHT31;52726;48.852;9.152;2022-11-21T04:41:37;4.53;93.26
65972;SHT31;52726;48.852;9.152;2022-11-21T04:44:02;4.56;93.61
65972;SHT31;52726;48.852;9.152;2022-11-21T04:46:28;4.56;93.49
65972;SHT31;52726;48.852;9.152;2022-11-21T04:48:53;4.58;93.61
65972;SHT31;52726;48.852;9.152;2022-11-21T04:51:18;4.62;93.40
65972;SHT31;52726;48.852;9.152;2022-11-21T04:53:44;4.65;93.92
65972;SHT31;52726;48.852;9.152;2022-11-21T04:56:09;4.65;93.20
65972;SHT31;52726;48.852;9.152;2022-11-21T04:58:35;4.68;93.26
65972;SHT31;52726;48.852;9.152;2022-11-21T05:01:05;4.68;93.51
65972;SHT31;52726;48.852;9.152;2022-11-21T05:03:31;4.66;93.51
65972;SHT31;52726;48.852;9.152;2022-11-21T05:05:57;4.66;93.59
65972;SHT31;52726;48.852;9.152;2022-11-21T05:08:22;4.66;93.61
65972;SHT31;52726;48.852;9.152;2022-11-21T05:10:47;4.68;93.85
65972;SHT31;52726;48.852;9.152;2022-11-21T05:13:39;4.66;93.87
65972;SHT31;52726;48.852;9.152;2022-11-21T05:16:04;4.68;94.14
65972;SHT31;52726;48.852;9.152;2022-11-21T05:18:30;4.68;94.03
65972;SHT31;52726;48.852;9.152;2022-11-21T05:20:55;4.69;93.89
65972;SHT31;52726;48.852;9.152;2022-11-21T05:23:21;4.68;93.91
65972;SHT31;52726;48.852;9.152;2022-11-21T05:25:46;4.73;94.32
65972;SHT31;52726;48.852;9.152;2022-11-21T05:28:12;4.72;93.94
65972;SHT31;52726;48.852;9.152;2022-11-21T05:30:37;4.77;94.30
65972;SHT31;52726;48.852;9.152;2022-11-21T05:33:03;4.77;94.07
65972;SHT31;52726;48.852;9.152;2022-11-21T05:35:29;4.84;93.91
65972;SHT31;52726;48.852;9.152;2022-11-21T05:37:55;4.87;93.93
65972;SHT31;52726;48.852;9.152;2022-11-21T05:40:21;4.89;93.93
65972;SHT31;52726;48.852;9.152;2022-11-21T05:42:46;4.93;94.07
65972;SHT31;52726;48.852;9.152;2022-11-21T05:45:30;4.99;94.07
65972;SHT31;52726;48.852;9.152;2022-11-21T05:47:56;5.03;92.99
65972;SHT31;52726;48.852;9.152;2022-11-21T05:50:21;5.04;92.96
65972;SHT31;52726;48.852;9.152;2022-11-21T05:52:47;5.04;93.12
65972;SHT31;52726;48.852;9.152;2022-11-21T05:55:12;4.99;93.13
65972;SHT31;52726;48.852;9.152;2022-11-21T05:57:38;4.94;93.23
65972;SHT31;52726;48.852;9.152;2022-11-21T06:00:14;4.91;93.34
65972;SHT31;52726;48.852;9.152;2022-11-21T06:02:40;4.89;93.19
65972;SHT31;52726;48.852;9.152;2022-11-21T06:05:23;4.86;92.76
65972;SHT31;52726;48.852;9.152;2022-11-21T06:07:49;4.87;92.84
65972;SHT31;52726;48.852;9.152;2022-11-21T06:10:14;4.83;92.79
65972;SHT31;52726;48.852;9.152;2022-11-21T06:12:40;4.76;92.70
65972;SHT31;52726;48.852;9.152;2022-11-21T06:15:05;4.75;92.48
65972;SHT31;52726;48.852;9.152;2022-11-21T06:17:31;4.76;92.55
65972;SHT31;52726;48.852;9.152;2022-11-21T06:19:56;4.77;92.40
65972;SHT31;52726;48.852;9.152;2022-11-21T06:22:22;4.77;92.86
65972;SHT31;52726;48.852;9.152;2022-11-21T06:24:47;4.79;92.72
65972;SHT31;52726;48.852;9.152;2022-11-21T06:27:12;4.84;92.27
65972;SHT31;52726;48.852;9.152;2022-11-21T06:29:38;4.86;92.17
65972;SHT31;52726;48.852;9.152;2022-11-21T06:32:03;4.87;92.37
65972;SHT31;52726;48.852;9.152;2022-11-21T06:34:28;4.91;92.24
65972;SHT31;52726;48.852;9.152;2022-11-21T06:36:54;4.90;91.83
65972;SHT31;52726;48.852;9.152;2022-11-21T06:39:19;4.93;91.97
65972;SHT31;52726;48.852;9.152;2022-11-21T06:41:45;4.91;92.19
65972;SHT31;52726;48.852;9.152;2022-11-21T06:44:18;4.90;92.03
65972;SHT31;52726;48.852;9.152;2022-11-21T06:46:43;4.89;92.30
65972;SHT31;52726;48.852;9.152;2022-11-21T06:49:09;4.86;92.33
65972;SHT31;52726;48.852;9.152;2022-11-21T06:51:35;4.86;92.56
65972;SHT31;52726;48.852;9.152;2022-11-21T06:54:00;4.84;92.93
65972;SHT31;52726;48.852;9.152;2022-11-21T06:56:28;4.83;92.67
65972;SHT31;52726;48.852;9.152;2022-11-21T06:58:53;4.81;92.76
65972;SHT31;52726;48.852;9.152;2022-11-21T07:01:20;4.81;92.30
65972;SHT31;52726;48.852;9.152;2022-11-21T07:03:45;4.81;92.62
65972;SHT31;52726;48.852;9.152;2022-11-21T07:06:11;4.77;92.31
65972;SHT31;52726;48.852;9.152;2022-11-21T07:08:36;4.77;92.61
65972;SHT31;52726;48.852;9.152;2022-11-21T07:11:04;4.77;92.30
65972;SHT31;52726;48.852;9.152;2022-11-21T07:13:30;4.80;92.39
65972;SHT31;52726;48.852;9.152;2022-11-21T07:16:01;4.81;91.96
65972;SHT31;52726;48.852;9.152;2022-11-21T07:18:27;4.86;91.99
65972;SHT31;52726;48.852;9.152;2022-11-21T07:20:57;4.90;92.08
65972;SHT31;52726;48.852;9.152;2022-11-21T07:23:22;4.94;91.72
65972;SHT31;52726;48.852;9.152;2022-11-21T07:25:47;5.06;91.55
65972;SHT31;52726;48.852;9.152;2022-11-21T07:28:13;5.01;91.22
65972;SHT31;52726;48.852;9.152;2022-11-21T07:30:38;5.01;91.46
65972;SHT31;52726;48.852;9.152;2022-11-21T07:33:05;5.04;91.77
65972;SHT31;52726;48.852;9.152;2022-11-21T07:35:32;5.24;91.62
65972;SHT31;52726;48.852;9.152;2022-11-21T07:37:58;5.37;90.88
65972;SHT31;52726;48.852;9.152;2022-11-21T07:40:23;5.26;90.96
65972;SHT31;52726;48.852;9.152;2022-11-21T07:42:49;5.17;90.89
65972;SHT31;52726;48.852;9.152;2022-11-21T07:45:14;5.24;90.94
65972;SHT31;52726;48.852;9.152;2022-11-21T07:47:40;5.17;90.94
65972;SHT31;52726;48.852;9.152;2022-11-21T07:50:07;5.07;91.45
65972;SHT31;52726;48.852;9.152;2022-11-21T07:52:33;5.14;92.34
65972;SHT31;52726;48.852;9.152;2022-11-21T07:54:58;5.11;92.19
65972;SHT31;52726;48.852;9.152;2022-11-21T07:57:26;5.07;91.61
65972;SHT31;52726;48.852;9.152;2022-11-21T07:59:52;5.17;91.66
65972;SHT31;52726;48.852;9.152;2022-11-21T08:02:22;5.21;90.46
65972;SHT31;52726;48.852;9.152;2022-11-21T08:04:48;5.20;89.44
65972;SHT31;52726;48.852;9.152;2022-11-21T08:07:14;5.30;90.06
65972;SHT31;52726;48.852;9.152;2022-11-21T08:09:40;5.35;88.69
65972;SHT31;52726;48.852;9.152;2022-11-21T08:12:05;5.54;89.82
65972;SHT31;52726;48.852;9.152;2022-11-21T08:14:32;5.67;88.53
65972;SHT31;52726;48.852;9.152;2022-11-21T08:16:57;5.83;89.19
65972;SHT31;52726;48.852;9.152;2022-11-21T08:19:23;5.93;87.98
65972;SHT31;52726;48.852;9.152;2022-11-21T08:21:48;5.85;87.04
65972;SHT31;52726;48.852;9.152;2022-11-21T08:24:14;5.87;87.00
65972;SHT31;52726;48.852;9.152;2022-11-21T08:26:41;5.89;87.12
65972;SHT31;52726;48.852;9.152;2022-11-21T08:29:06;5.86;86.25
65972;SHT31;52726;48.852;9.152;2022-11-21T08:31:32;5.92;86.86
65972;SHT31;52726;48.852;9.152;2022-11-21T08:33:57;5.90;86.66
65972;SHT31;52726;48.852;9.152;2022-11-21T08:36:23;5.92;86.20
65972;SHT31;52726;48.852;9.152;2022-11-21T08:38:49;5.93;85.84
65972;SHT31;52726;48.852;9.152;2022-11-21T08:41:14;5.99;84.80
65972;SHT31;52726;48.852;9.152;2022-11-21T08:43:58;6.06;84.52
65972;SHT31;52726;48.852;9.152;2022-11-21T08:46:23;6.09;83.51
65972;SHT31;52726;48.852;9.152;2022-11-21T08:48:55;6.11;83.81
65972;SHT31;52726;48.852;9.152;2022-11-21T08:51:21;6.21;82.78
65972;SHT31;52726;48.852;9.152;2022-11-21T08:53:46;6.23;82.92
65972;SHT31;52726;48.852;9.152;2022-11-21T08:56:12;6.27;82.95
65972;SHT31;52726;48.852;9.152;2022-11-21T08:58:38;6.28;82.57
65972;SHT31;52726;48.852;9.152;2022-11-21T09:01:04;6.35;83.03
65972;SHT31;52726;48.852;9.152;2022-11-21T09:03:29;6.38;83.50
65972;SHT31;52726;48.852;9.152;2022-11-21T09:05:56;6.37;83.31
65972;SHT31;52726;48.852;9.152;2022-11-21T09:08:21;6.48;83.49
65972;SHT31;52726;48.852;9.152;2022-11-21T09:10:46;6.49;83.60
65972;SHT31;52726;48.852;9.152;2022-11-21T09:13:12;6.61;83.94
65972;SHT31;52726;48.852;9.152;2022-11-21T09:15:37;6.69;83.48
65972;SHT31;52726;48.852;9.152;2022-11-21T09:18:21;6.90;82.97
65972;SHT31;52726;48.852;9.152;2022-11-21T09:20:46;6.97;83.28
65972;SHT31;52726;48.852;9.152;2022-11-21T09:23:14;6.92;82.34
65972;SHT31;52726;48.852;9.152;2022-11-21T09:25:40;6.99;82.78
65972;SHT31;52726;48.852;9.152;2022-11-21T09:28:06;7.03;82.97
65972;SHT31;52726;48.852;9.152;2022-11-21T09:30:32;7.04;82.66
65972;SHT31;52726;48.852;9.152;2022-11-21T09:33:10;7.16;82.31
65972;SHT31;52726;48.852;9.152;2022-11-21T09:35:36;7.38;81.02
65972;SHT31;52726;48.852;9.152;2022-11-21T09:38:01;7.61;81.09
65972;SHT31;52726;48.852;9.152;2022-11-21T09:40:31;7.65;80.96
65972;SHT31;52726;48.852;9.152;2022-11-21T09:45:46;7.46;80.22
65972;SHT31;52726;48.852;9.152;2022-11-21T09:48:45;7.41;80.77
65972;SHT31;52726;48.852;9.152;2022-11-21T09:51:12;7.41;80.91
65972;SHT31;52726;48.852;9.152;2022-11-21T09:53:50;7.50;81.06
65972;SHT31;52726;48.852;9.152;2022-11-21T09:56:17;7.57;80.70
65972;SHT31;52726;48.852;9.152;2022-11-21T10:01:35;7.81;81.26
65972;SHT31;52726;48.852;9.152;2022-11-21T10:04:02;7.83;80.56
65972;SHT31;52726;48.852;9.152;2022-11-21T10:06:45;7.83;80.88
65972;SHT31;52726;48.852;9.152;2022-11-21T10:12:03;7.97;77.28
65972;SHT31;52726;48.852;9.152;2022-11-21T10:17:56;8.65;77.52
65972;SHT31;52726;48.852;9.152;2022-11-21T10:20:37;8.65;77.11
65972;SHT31;52726;48.852;9.152;2022-11-21T10:25:55;8.83;76.51
65972;SHT31;52726;48.852;9.152;2022-11-21T10:28:29;8.83;76.57
65972;SHT31;52726;48.852;9.152;2022-11-21T10:30:58;8.68;76.30
65972;SHT31;52726;48.852;9.152;2022-11-21T10:33:32;8.61;74.88
65972;SHT31;52726;48.852;9.152;2022-11-21T10:36:07;8.64;75.58
65972;SHT31;52726;48.852;9.152;2022-11-21T10:38:37;8.93;76.77
65972;SHT31;52726;48.852;9.152;2022-11-21T10:41:52;8.93;75.07
65972;SHT31;52726;48.852;9.152;2022-11-21T10:44:26;8.95;75.42
65972;SHT31;52726;48.852;9.152;2022-11-21T10:47:22;9.08;75.48
65972;SHT31;52726;48.852;9.152;2022-11-21T10:50:04;8.86;76.28
65972;SHT31;52726;48.852;9.152;2022-11-21T10:53:04;8.48;79.78
65972;SHT31;52726;48.852;9.152;2022-11-21T10:56:01;7.38;83.51
65972;SHT31;52726;48.852;9.152;2022-11-21T10:58:35;7.11;84.24
65972;SHT31;52726;48.852;9.152;2022-11-21T11:01:01;7.16;84.74
65972;SHT31;52726;48.852;9.152;2022-11-21T11:03:28;7.10;84.84
65972;SHT31;52726;48.852;9.152;2022-11-21T11:05:55;7.11;84.13
65972;SHT31;52726;48.852;9.152;2022-11-21T11:08:23;7.17;84.86
65972;SHT31;52726;48.852;9.152;2022-11-21T11:11:12;7.07;86.30
65972;SHT31;52726;48.852;9.152;2022-11-21T11:16:20;7.26;85.40
65972;SHT31;52726;48.852;9.152;2022-11-21T11:18:59;7.28;83.69
65972;SHT31;52726;48.852;9.152;2022-11-21T11:21:29;7.34;85.15
65972;SHT31;52726;48.852;9.152;2022-11-21T11:27:20;7.52;84.79
65972;SHT31;52726;48.852;9.152;2022-11-21T11:29:22;7.62;84.61
65972;SHT31;52726;48.852;9.152;2022-11-21T11:31:54;7.59;84.36
65972;SHT31;52726;48.852;9.152;2022-11-21T11:34:21;7.62;84.97
65972;SHT31;52726;48.852;9.152;2022-11-21T11:37:00;7.65;84.89
65972;SHT31;52726;48.852;9.152;2022-11-21T11:42:43;7.92;86.43
65972;SHT31;52726;48.852;9.152;2022-11-21T11:48:49;7.97;86.28
65972;SHT31;52726;48.852;9.152;2022-11-21T11:51:20;7.96;84.93
65972;SHT31;52726;48.852;9.152;2022-11-21T11:53:53;8.00;84.21
65972;SHT31;52726;48.852;9.152;2022-11-21T11:56:26;8.27;83.81
65972;SHT31;52726;48.852;9.152;2022-11-21T11:59:21;8.43;82.61
65972;SHT31;52726;48.852;9.152;2022-11-21T12:04:28;8.55;72.80
65972;SHT31;52726;48.852;9.152;2022-11-21T12:07:04;8.69;73.94
65972;SHT31;52726;48.852;9.152;2022-11-21T12:12:01;8.73;71.09
65972;SHT31;52726;48.852;9.152;2022-11-21T12:17:32;8.67;70.17
65972;SHT31;52726;48.852;9.152;2022-11-21T12:20:01;8.73;71.33
65972;SHT31;52726;48.852;9.152;2022-11-21T12:22:27;8.78;70.86
65972;SHT31;52726;48.852;9.152;2022-11-21T12:24:53;8.78;69.01
65972;SHT31;52726;48.852;9.152;2022-11-21T12:27:30;8.82;70.89
65972;SHT31;52726;48.852;9.152;2022-11-21T12:33:04;8.81;70.71
65972;SHT31;52726;48.852;9.152;2022-11-21T12:35:45;8.82;71.34
65972;SHT31;52726;48.852;9.152;2022-11-21T12:44:19;8.81;71.68
65972;SHT31;52726;48.852;9.152;2022-11-21T12:49:51;8.83;71.67
65972;SHT31;52726;48.852;9.152;2022-11-21T12:52:40;8.98;71.54
65972;SHT31;52726;48.852;9.152;2022-11-21T12:55:35;9.06;70.50
65972;SHT31;52726;48.852;9.152;2022-11-21T13:00:59;9.38;70.15
65972;SHT31;52726;48.852;9.152;2022-11-21T13:03:46;9.44;68.68
65972;SHT31;52726;48.852;9.152;2022-11-21T13:06:38;9.55;69.26
65972;SHT31;52726;48.852;9.152;2022-11-21T13:09:07;9.48;67.78
65972;SHT31;52726;48.852;9.152;2022-11-21T13:11:54;9.36;64.51
65972;SHT31;52726;48.852;9.152;2022-11-21T13:14:36;9.41;67.26
65972;SHT31;52726;48.852;9.152;2022-11-21T13:27:54;9.22;69.20
65972;SHT31;52726;48.852;9.152;2022-11-21T13:30:21;9.19;68.17
65972;SHT31;52726;48.852;9.152;2022-11-21T13:32:52;9.12;67.45
65972;SHT31;52726;48.852;9.152;2022-11-21T13:38:01;9.29;70.03
65972;SHT31;52726;48.852;9.152;2022-11-21T13:45:43;9.43;68.53
65972;SHT31;52726;48.852;9.152;2022-11-21T13:51:44;9.27;69.29
65972;SHT31;52726;48.852;9.152;2022-11-21T14:08:37;8.95;66.89
65972;SHT31;52726;48.852;9.152;2022-11-21T14:11:28;8.92;68.25
65972;SHT31;52726;48.852;9.152;2022-11-21T14:13:56;8.91;68.10
65972;SHT31;52726;48.852;9.152;2022-11-21T14:16:24;8.89;69.56
65972;SHT31;52726;48.852;9.152;2022-11-21T14:18:51;8.83;68.92
65972;SHT31;52726;48.852;9.152;2022-11-21T14:21:23;8.82;69.18
65972;SHT31;52726;48.852;9.152;2022-11-21T14:24:01;8.73;68.19
65972;SHT31;52726;48.852;9.152;2022-11-21T14:26:31;8.67;68.49
65972;SHT31;52726;48.852;9.152;2022-11-21T14:29:18;8.62;69.56
65972;SHT31;52726;48.852;9.152;2022-11-21T14:31:47;8.57;70.24
65972;SHT31;52726;48.852;9.152;2022-11-21T14:34:23;8.55;70.63
65972;SHT31;52726;48.852;9.152;2022-11-21T14:36:49;8.51;70.45
65972;SHT31;52726;48.852;9.152;2022-11-21T14:39:15;8.44;71.13
65972;SHT31;52726;48.852;9.152;2022-11-21T14:41:43;8.40;71.05
65972;SHT31;52726;48.852;9.152;2022-11-21T14:44:17;8.36;72.17
65972;SHT31;52726;48.852;9.152;2022-11-21T14:47:02;8.29;71.48
65972;SHT31;52726;48.852;9.152;2022-11-21T14:49:30;8.27;72.10
65972;SHT31;52726;48.852;9.152;2022-11-21T14:54:45;8.16;73.77
65972;SHT31;52726;48.852;9.152;2022-11-21T14:57:23;8.03;73.45
65972;SHT31;52726;48.852;9.152;2022-11-21T14:59:49;7.97;72.63
65972;SHT31;52726;48.852;9.152;2022-11-21T15:02:21;7.95;74.56
65972;SHT31;52726;48.852;9.152;2022-11-21T15:04:49;7.86;75.62
65972;SHT31;52726;48.852;9.152;2022-11-21T15:07:21;7.87;74.58
65972;SHT31;52726;48.852;9.152;2022-11-21T15:09:48;7.82;74.20
65972;SHT31;52726;48.852;9.152;2022-11-21T15:12:29;7.79;75.26
65972;SHT31;52726;48.852;9.152;2022-11-21T15:14:59;7.75;74.75
65972;SHT31;52726;48.852;9.152;2022-11-21T15:17:25;7.69;75.60
65972;SHT31;52726;48.852;9.152;2022-11-21T15:20:18;7.59;75.64
65972;SHT31;52726;48.852;9.152;2022-11-21T15:22:45;7.54;75.97
65972;SHT31;52726;48.852;9.152;2022-11-21T15:25:19;7.50;75.32
65972;SHT31;52726;48.852;9.152;2022-11-21T15:27:46;7.44;74.53
65972;SHT31;52726;48.852;9.152;2022-11-21T15:33:06;7.32;76.83
65972;SHT31;52726;48.852;9.152;2022-11-21T15:48:53;6.83;78.17
65972;SHT31;52726;48.852;9.152;2022-11-21T15:51:21;6.71;78.93
65972;SHT31;52726;48.852;9.152;2022-11-21T15:53:47;6.68;78.34
65972;SHT31;52726;48.852;9.152;2022-11-21T15:56:14;6.58;79.06
65972;SHT31;52726;48.852;9.152;2022-11-21T15:58:40;6.46;80.40
65972;SHT31;52726;48.852;9.152;2022-11-21T16:01:19;6.44;79.10
65972;SHT31;52726;48.852;9.152;2022-11-21T16:03:52;6.51;78.76
65972;SHT31;52726;48.852;9.152;2022-11-21T16:06:18;6.45;80.56
65972;SHT31;52726;48.852;9.152;2022-11-21T16:08:44;6.23;81.61
65972;SHT31;52726;48.852;9.152;2022-11-21T16:11:33;6.07;82.04
65972;SHT31;52726;48.852;9.152;2022-11-21T16:14:03;5.97;82.92
65972;SHT31;52726;48.852;9.152;2022-11-21T16:16:31;5.89;82.48
65972;SHT31;52726;48.852;9.152;2022-11-21T16:18:57;5.85;82.40
65972;SHT31;52726;48.852;9.152;2022-11-21T16:21:23;5.72;83.26
65972;SHT31;52726;48.852;9.152;2022-11-21T16:23:49;5.60;83.99
65972;SHT31;52726;48.852;9.152;2022-11-21T16:26:14;5.47;85.55
65972;SHT31;52726;48.852;9.152;2022-11-21T16:28:40;5.38;86.14
65972;SHT31;52726;48.852;9.152;2022-11-21T16:31:06;5.30;85.88
65972;SHT31;52726;48.852;9.152;2022-11-21T16:33:32;5.16;86.70
65972;SHT31;52726;48.852;9.152;2022-11-21T16:35:58;4.97;86.79
65972;SHT31;52726;48.852;9.152;2022-11-21T16:38:25;4.91;87.46
65972;SHT31;52726;48.852;9.152;2022-11-21T16:40:58;4.94;87.10
65972;SHT31;52726;48.852;9.152;2022-11-21T16:43:25;5.06;86.78
65972;SHT31;52726;48.852;9.152;2022-11-21T16:45:51;5.07;86.41
65972;SHT31;52726;48.852;9.152;2022-11-21T16:48:18;5.03;86.79
65972;SHT31;52726;48.852;9.152;2022-11-21T16:50:44;4.97;86.92
65972;SHT31;52726;48.852;9.152;2022-11-21T16:53:09;4.96;86.79
65972;SHT31;52726;48.852;9.152;2022-11-21T16:55:34;4.80;86.12
65972;SHT31;52726;48.852;9.152;2022-11-21T16:58:00;4.68;86.51
65972;SHT31;52726;48.852;9.152;2022-11-21T17:00:26;4.55;87.25
65972;SHT31;52726;48.852;9.152;2022-11-21T17:02:52;4.42;88.18
65972;SHT31;52726;48.852;9.152;2022-11-21T17:05:18;4.40;88.43
65972;SHT31;52726;48.852;9.152;2022-11-21T17:07:44;4.38;88.90
65972;SHT31;52726;48.852;9.152;2022-11-21T17:10:10;4.40;88.72
65972;SHT31;52726;48.852;9.152;2022-11-21T17:12:36;4.41;88.30
65972;SHT31;52726;48.852;9.152;2022-11-21T17:15:06;4.40;89.00
65972;SHT31;52726;48.852;9.152;2022-11-21T17:17:33;4.40;88.19
65972;SHT31;52726;48.852;9.152;2022-11-21T17:19:59;4.38;88.52
65972;SHT31;52726;48.852;9.152;2022-11-21T17:22:24;4.41;88.11
65972;SHT31;52726;48.852;9.152;2022-11-21T17:24:51;4.44;87.71
65972;SHT31;52726;48.852;9.152;2022-11-21T17:27:18;4.56;86.75
65972;SHT31;52726;48.852;9.152;2022-11-21T17:29:43;4.63;86.34
65972;SHT31;52726;48.852;9.152;2022-11-21T17:32:09;4.58;86.65
65972;SHT31;52726;48.852;9.152;2022-11-21T17:34:34;4.55;86.78
65972;SHT31;52726;48.852;9.152;2022-11-21T17:36:59;4.52;87.11
65972;SHT31;52726;48.852;9.152;2022-11-21T17:39:26;4.48;87.19
65972;SHT31;52726;48.852;9.152;2022-11-21T17:41:52;4.48;86.93
65972;SHT31;52726;48.852;9.152;2022-11-21T17:44:18;4.69;85.48
65972;SHT31;52726;48.852;9.152;2022-11-21T17:46:43;4.75;84.99